Time;durP1;ratioP1;P1;durP2;ratioP2;P2;SDS_P1;SDS_P2;PMS_P1;PMS_P2;Temp;Humidity;BMP_temperature;BMP_pressure;BME280_temperature;BME280_humidity;BME280_pressure;Samples;Min_cycle;Max_cycle;Signal;HPM_P1;HPM_P2
2022/04/26 03:36:07;;;;;;;8.57;4.68;;;;;;;;;;5056605;28;20087;-74
2022/04/26 03:38:33;;;;;;;7.13;4.10;;;;;;;;;;5043935;28;20490;-74
2022/04/26 03:40:59;;;;;;;7.10;4.30;;;;;;;;;;5052414;28;20025;-74
2022/04/26 03:43:25;;;;;;;7.82;4.00;;;;;;;;;;5052242;28;20041;-74
2022/04/26 03:45:52;;;;;;;6.78;3.90;;;;;;;;;;5050597;28;20033;-75
2022/04/26 03:48:19;;;;;;;7.07;4.47;;;;;;;;;;5060386;28;20107;-74
2022/04/26 03:50:45;;;;;;;7.25;4.35;;;;;;;;;;5062717;28;20039;-74
2022/04/26 03:53:11;;;;;;;9.57;4.30;;;;;;;;;;5032714;28;20047;-74
2022/04/26 03:55:37;;;;;;;9.57;5.10;;;;;;;;;;5034004;28;20033;-74
2022/04/26 03:58:03;;;;;;;7.47;4.40;;;;;;;;;;5052527;28;20039;-74
2022/04/26 04:00:29;;;;;;;9.15;5.68;;;;;;;;;;5051730;28;20029;-74
2022/04/26 04:02:55;;;;;;;7.45;4.95;;;;;;;;;;5050906;28;20087;-74
2022/04/26 04:05:24;;;;;;;8.02;4.63;;;;;;;;;;5052096;28;20036;-74
2022/04/26 04:07:50;;;;;;;7.47;4.18;;;;;;;;;;5033244;28;20028;-74
2022/04/26 04:10:16;;;;;;;7.95;4.30;;;;;;;;;;5052322;28;20083;-74
2022/04/26 04:12:42;;;;;;;8.20;4.85;;;;;;;;;;5051262;28;20394;-74
2022/04/26 04:15:08;;;;;;;10.57;6.00;;;;;;;;;;5039271;28;20033;-74
2022/04/26 04:17:34;;;;;;;8.65;5.53;;;;;;;;;;5051629;28;20036;-74
2022/04/26 04:20:00;;;;;;;11.75;6.43;;;;;;;;;;5051891;28;20508;-74
2022/04/26 04:22:27;;;;;;;12.68;6.72;;;;;;;;;;5047719;28;20057;-74
2022/04/26 04:24:53;;;;;;;10.38;8.02;;;;;;;;;;5046767;28;20045;-74
2022/04/26 04:27:19;;;;;;;13.38;7.68;;;;;;;;;;5050983;28;20033;-74
2022/04/26 04:29:45;;;;;;;13.43;7.85;;;;;;;;;;5050477;28;20029;-74
2022/04/26 04:32:11;;;;;;;14.35;8.70;;;;;;;;;;5051165;28;20056;-74
2022/04/26 04:34:37;;;;;;;16.50;8.63;;;;;;;;;;5042972;28;20363;-74
2022/04/26 04:37:03;;;;;;;13.05;8.75;;;;;;;;;;5051186;28;20367;-74
2022/04/26 04:39:29;;;;;;;9.45;7.00;;;;;;;;;;5050543;28;20522;-74
2022/04/26 04:41:55;;;;;;;23.05;9.23;;;;;;;;;;5051178;28;20124;-74
2022/04/26 04:44:22;;;;;;;12.07;9.40;;;;;;;;;;5049764;28;20036;-74
2022/04/26 04:46:49;;;;;;;18.35;9.73;;;;;;;;;;5050825;28;20071;-74
2022/04/26 04:49:15;;;;;;;15.02;9.15;;;;;;;;;;5050436;28;20245;-74
2022/04/26 04:51:41;;;;;;;15.55;11.43;;;;;;;;;;5050947;28;20033;-74
2022/04/26 04:54:07;;;;;;;18.25;13.60;;;;;;;;;;5050126;28;20029;-74
2022/04/26 04:56:33;;;;;;;18.42;13.98;;;;;;;;;;5050969;28;20044;-74
2022/04/26 04:58:59;;;;;;;18.77;12.48;;;;;;;;;;5031831;28;20054;-74
2022/04/26 05:01:25;;;;;;;12.07;9.57;;;;;;;;;;5041705;28;20068;-74
2022/04/26 05:03:52;;;;;;;18.10;10.45;;;;;;;;;;5050142;28;20055;-74
2022/04/26 05:06:18;;;;;;;21.33;11.73;;;;;;;;;;5049360;28;20037;-74
2022/04/26 05:08:45;;;;;;;17.85;11.30;;;;;;;;;;5050346;28;20021;-74
2022/04/26 05:11:11;;;;;;;19.02;12.68;;;;;;;;;;5046744;28;20398;-73
2022/04/26 05:13:37;;;;;;;16.85;11.45;;;;;;;;;;5046632;28;20743;-75
2022/04/26 05:16:03;;;;;;;16.52;9.95;;;;;;;;;;5049228;28;20039;-74
2022/04/26 05:18:29;;;;;;;15.80;9.80;;;;;;;;;;5049836;28;20367;-74
2022/04/26 05:20:55;;;;;;;13.25;9.13;;;;;;;;;;5041331;28;20045;-74
2022/04/26 05:26:06;;;;;;;20.42;12.13;;;;;;;;;;5045776;28;20524;-74
2022/04/26 05:28:32;;;;;;;20.58;13.98;;;;;;;;;;5048186;28;20149;-74
2022/04/26 05:30:58;;;;;;;15.95;11.43;;;;;;;;;;5049511;28;20033;-74
2022/04/26 05:33:27;;;;;;;15.98;10.23;;;;;;;;;;5016674;28;20037;-74
2022/04/26 05:35:53;;;;;;;13.20;9.25;;;;;;;;;;5046673;28;20494;-74
2022/04/26 05:38:20;;;;;;;17.48;10.20;;;;;;;;;;5047419;28;20029;-74
2022/04/26 05:40:46;;;;;;;13.30;9.07;;;;;;;;;;5048860;28;20037;-74
2022/04/26 05:43:12;;;;;;;10.45;6.82;;;;;;;;;;5048867;28;20079;-74
2022/04/26 05:45:38;;;;;;;11.15;7.07;;;;;;;;;;5048980;28;20086;-74
2022/04/26 05:48:05;;;;;;;13.40;7.10;;;;;;;;;;5027801;28;20542;-74
2022/04/26 05:50:31;;;;;;;9.73;6.65;;;;;;;;;;5048766;28;20116;-74
2022/04/26 05:52:57;;;;;;;12.43;8.07;;;;;;;;;;5038157;28;20036;-74
2022/04/26 05:55:23;;;;;;;12.75;6.70;;;;;;;;;;5023281;28;20071;-74
2022/04/26 05:57:49;;;;;;;9.88;6.40;;;;;;;;;;5048320;28;20056;-74
2022/04/26 06:00:15;;;;;;;12.52;8.85;;;;;;;;;;5048173;28;20471;-74
2022/04/26 06:02:42;;;;;;;9.63;6.50;;;;;;;;;;5049195;28;20471;-74
2022/04/26 06:05:08;;;;;;;10.70;5.68;;;;;;;;;;5048759;28;20115;-74
2022/04/26 06:07:34;;;;;;;15.88;7.50;;;;;;;;;;5028418;28;20029;-74
2022/04/26 06:10:01;;;;;;;13.18;7.38;;;;;;;;;;5043953;28;20029;-74
2022/04/26 06:12:27;;;;;;;17.15;9.70;;;;;;;;;;5056883;28;20477;-74
2022/04/26 06:14:57;;;;;;;12.60;7.15;;;;;;;;;;5049003;28;20099;-74
2022/04/26 06:17:23;;;;;;;7.15;4.97;;;;;;;;;;5043419;28;20413;-74
2022/04/26 06:19:49;;;;;;;10.05;5.72;;;;;;;;;;5046515;28;20029;-74
2022/04/26 06:22:16;;;;;;;10.40;6.93;;;;;;;;;;5046768;28;20056;-74
2022/04/26 06:24:42;;;;;;;13.80;8.95;;;;;;;;;;5052216;28;20053;-74
2022/04/26 06:27:08;;;;;;;9.13;6.90;;;;;;;;;;5043521;28;20029;-74
2022/04/26 06:29:34;;;;;;;11.48;6.60;;;;;;;;;;5054018;28;20380;-74
2022/04/26 06:32:02;;;;;;;11.15;7.55;;;;;;;;;;5037377;28;20515;-74
2022/04/26 06:34:28;;;;;;;12.25;7.57;;;;;;;;;;5054489;28;20029;-74
2022/04/26 06:36:54;;;;;;;10.10;5.60;;;;;;;;;;5030887;28;20764;-74
2022/04/26 06:39:20;;;;;;;10.98;6.38;;;;;;;;;;5055369;28;20029;-74
2022/04/26 06:41:46;;;;;;;11.80;6.35;;;;;;;;;;5053676;28;20409;-74
2022/04/26 06:44:13;;;;;;;10.77;6.93;;;;;;;;;;5058616;28;20033;-74
2022/04/26 06:46:39;;;;;;;10.70;5.82;;;;;;;;;;5048077;28;20047;-74
2022/04/26 06:49:05;;;;;;;9.55;6.20;;;;;;;;;;5048965;28;20032;-74
2022/04/26 06:51:35;;;;;;;9.15;5.55;;;;;;;;;;5046657;28;20029;-74
2022/04/26 06:54:01;;;;;;;6.97;4.53;;;;;;;;;;5052863;28;20112;-74
2022/04/26 06:56:27;;;;;;;8.23;4.10;;;;;;;;;;5047599;28;20032;-74
2022/04/26 06:58:53;;;;;;;8.02;4.18;;;;;;;;;;5030313;28;20090;-74
2022/04/26 07:01:19;;;;;;;7.78;3.80;;;;;;;;;;5047081;28;20090;-74
2022/04/26 07:03:45;;;;;;;6.68;3.90;;;;;;;;;;5029866;28;20432;-74
2022/04/26 07:06:11;;;;;;;8.77;4.38;;;;;;;;;;5055390;28;20037;-74
2022/04/26 07:08:37;;;;;;;10.70;5.88;;;;;;;;;;5045261;28;20076;-74
2022/04/26 07:11:03;;;;;;;9.13;5.88;;;;;;;;;;5054194;28;20029;-74
2022/04/26 07:13:29;;;;;;;10.63;6.05;;;;;;;;;;5054220;28;20036;-74
2022/04/26 07:15:55;;;;;;;13.13;5.45;;;;;;;;;;5054999;28;20036;-74
2022/04/26 07:18:21;;;;;;;6.35;4.18;;;;;;;;;;5050513;28;20098;-74
2022/04/26 07:20:47;;;;;;;7.28;4.57;;;;;;;;;;5047734;28;20073;-74
2022/04/26 07:23:13;;;;;;;9.88;5.05;;;;;;;;;;5047058;28;20846;-74
2022/04/26 07:25:39;;;;;;;9.88;5.70;;;;;;;;;;5047712;28;20059;-74
2022/04/26 07:28:06;;;;;;;10.55;6.93;;;;;;;;;;5027770;28;20039;-74
2022/04/26 07:30:35;;;;;;;13.55;8.45;;;;;;;;;;5048127;28;20151;-74
2022/04/26 07:35:50;;;;;;;9.80;6.68;;;;;;;;;;5048030;28;20566;-74
2022/04/26 07:38:16;;;;;;;9.75;6.18;;;;;;;;;;5046409;28;20025;-74
2022/04/26 07:40:43;;;;;;;10.40;5.70;;;;;;;;;;5047890;28;20041;-74
2022/04/26 07:43:09;;;;;;;9.40;5.57;;;;;;;;;;5029473;28;20478;-74
2022/04/26 07:45:38;;;;;;;8.60;5.78;;;;;;;;;;5058500;28;20509;-74
2022/04/26 07:48:05;;;;;;;11.00;6.18;;;;;;;;;;5029805;28;20021;-74
2022/04/26 07:50:32;;;;;;;9.98;5.93;;;;;;;;;;5046039;28;20033;-74
2022/04/26 07:52:59;;;;;;;13.13;5.88;;;;;;;;;;5053931;28;20028;-74
2022/04/26 07:55:25;;;;;;;10.65;6.10;;;;;;;;;;5030302;28;20087;-74
2022/04/26 07:57:51;;;;;;;9.30;5.85;;;;;;;;;;5051708;28;20103;-74
2022/04/26 08:00:17;;;;;;;12.88;6.50;;;;;;;;;;5055579;28;20186;-73
2022/04/26 08:02:43;;;;;;;11.50;6.15;;;;;;;;;;5047807;28;20037;-74
2022/04/26 08:05:09;;;;;;;12.98;6.05;;;;;;;;;;5046966;28;20504;-74
2022/04/26 08:07:39;;;;;;;9.30;5.90;;;;;;;;;;5044185;28;20398;-74
2022/04/26 08:10:09;;;;;;;8.02;5.90;;;;;;;;;;5049985;28;20032;-74
2022/04/26 08:12:35;;;;;;;10.23;5.60;;;;;;;;;;5045612;28;20025;-74
2022/04/26 08:15:01;;;;;;;9.23;4.93;;;;;;;;;;5058193;28;20032;-74
2022/04/26 08:17:27;;;;;;;9.45;5.10;;;;;;;;;;5048635;28;20029;-74
2022/04/26 08:19:53;;;;;;;8.40;4.68;;;;;;;;;;5049948;28;20095;-74
2022/04/26 08:22:19;;;;;;;7.95;4.50;;;;;;;;;;5050060;28;20041;-74
2022/04/26 08:27:32;;;;;;;7.93;4.82;;;;;;;;;;5037720;28;20116;-74
2022/04/26 08:29:58;;;;;;;11.13;6.28;;;;;;;;;;5051380;28;20025;-74
2022/04/26 08:32:26;;;;;;;11.27;6.70;;;;;;;;;;5048577;28;20041;-74
2022/04/26 08:34:53;;;;;;;11.52;7.10;;;;;;;;;;5051137;28;20950;-73
2022/04/26 08:37:20;;;;;;;9.88;6.43;;;;;;;;;;5032020;28;20390;-73
2022/04/26 08:39:46;;;;;;;10.70;6.15;;;;;;;;;;5056222;28;20401;-73
2022/04/26 08:42:12;;;;;;;14.52;8.40;;;;;;;;;;5047609;28;20048;-73
2022/04/26 08:44:40;;;;;;;10.48;5.97;;;;;;;;;;5034080;28;20111;-74
2022/04/26 08:52:48;;;;;;;7.63;4.65;;;;;;;;;;5047528;28;20529;-73
2022/04/26 08:55:15;;;;;;;9.57;4.95;;;;;;;;;;5033205;28;20037;-74
2022/04/26 08:57:41;;;;;;;8.30;4.60;;;;;;;;;;5051739;28;20029;-74
2022/04/26 09:00:11;;;;;;;9.02;3.97;;;;;;;;;;5049714;28;20078;-74
2022/04/26 09:02:37;;;;;;;8.45;4.72;;;;;;;;;;5029801;28;20626;-74
2022/04/26 09:05:10;;;;;;;9.18;4.70;;;;;;;;;;5029694;28;20391;-74
2022/04/26 09:07:39;;;;;;;9.07;5.07;;;;;;;;;;5024781;28;20072;-73
2022/04/26 09:10:05;;;;;;;8.80;5.93;;;;;;;;;;5049525;28;20029;-73
2022/04/26 09:12:31;;;;;;;8.95;4.90;;;;;;;;;;5050091;28;20112;-74
2022/04/26 09:15:13;;;;;;;12.15;6.20;;;;;;;;;;5047734;28;20968;-74
2022/04/26 09:17:39;;;;;;;8.35;5.60;;;;;;;;;;5055915;28;20029;-74
2022/04/26 09:20:08;;;;;;;9.98;6.13;;;;;;;;;;5049297;28;20063;-74
2022/04/26 09:22:34;;;;;;;11.88;7.00;;;;;;;;;;5049159;28;20128;-74
2022/04/26 09:25:03;;;;;;;14.32;7.70;;;;;;;;;;5050589;28;20127;-74
2022/04/26 09:27:29;;;;;;;15.07;7.13;;;;;;;;;;5052281;28;20037;-74
2022/04/26 09:29:55;;;;;;;11.98;7.40;;;;;;;;;;5031828;28;20029;-74
2022/04/26 09:32:23;;;;;;;13.57;8.10;;;;;;;;;;5056036;28;20036;-73
2022/04/26 09:34:49;;;;;;;10.65;6.60;;;;;;;;;;5054836;28;20107;-74
2022/04/26 09:37:16;;;;;;;12.93;6.70;;;;;;;;;;5053699;28;20515;-74
2022/04/26 09:40:00;;;;;;;17.98;8.20;;;;;;;;;;5049886;28;20037;-74
2022/04/26 09:42:30;;;;;;;10.60;7.55;;;;;;;;;;5046450;28;20032;-74
2022/04/26 09:45:04;;;;;;;12.07;6.90;;;;;;;;;;5056092;28;20083;-74
2022/04/26 09:47:50;;;;;;;10.45;7.38;;;;;;;;;;5050626;28;20037;-74
2022/04/26 09:50:17;;;;;;;11.85;7.15;;;;;;;;;;5048668;28;20390;-74
2022/04/26 09:52:44;;;;;;;14.55;9.88;;;;;;;;;;5049902;28;20032;-74
2022/04/26 09:55:11;;;;;;;20.15;12.43;;;;;;;;;;5058544;28;20396;-73
2022/04/26 09:57:37;;;;;;;9.77;6.43;;;;;;;;;;5056077;28;20029;-74
2022/04/26 10:00:05;;;;;;;7.80;4.97;;;;;;;;;;5033741;28;20067;-74
2022/04/26 10:02:32;;;;;;;9.85;5.20;;;;;;;;;;5050994;28;20028;-74
2022/04/26 10:05:05;;;;;;;6.60;4.47;;;;;;;;;;5055284;28;20149;-74
2022/04/26 10:07:52;;;;;;;10.23;4.32;;;;;;;;;;5049051;28;20033;-74
2022/04/26 10:10:21;;;;;;;7.82;4.85;;;;;;;;;;5044618;28;20379;-74
2022/04/26 10:13:31;;;;;;;8.45;4.35;;;;;;;;;;5048624;28;20628;-74
2022/04/26 10:15:34;;;;;;;7.22;4.28;;;;;;;;;;5044157;28;20044;-74
2022/04/26 10:18:00;;;;;;;10.43;5.60;;;;;;;;;;5048525;28;20147;-74
2022/04/26 10:20:42;;;;;;;8.20;5.35;;;;;;;;;;5043103;28;20116;-74
2022/04/26 10:23:08;;;;;;;9.40;5.10;;;;;;;;;;5046217;28;20112;-74
2022/04/26 10:25:34;;;;;;;10.15;6.53;;;;;;;;;;5055137;28;20436;-74
2022/04/26 10:28:18;;;;;;;8.98;5.78;;;;;;;;;;5039432;28;20115;-73
2022/04/26 10:30:50;;;;;;;9.00;5.40;;;;;;;;;;5046576;28;20039;-74
2022/04/26 10:33:35;;;;;;;8.55;5.75;;;;;;;;;;5054587;28;20036;-73
2022/04/26 10:36:37;;;;;;;9.98;6.57;;;;;;;;;;5051008;28;20050;-74
2022/04/26 10:39:05;;;;;;;9.40;5.97;;;;;;;;;;5005560;28;20714;-74
2022/04/26 10:41:34;;;;;;;9.70;6.57;;;;;;;;;;5047642;28;20048;-74
2022/04/26 10:44:21;;;;;;;8.93;6.00;;;;;;;;;;5048202;28;20572;-74
2022/04/26 10:46:58;;;;;;;12.70;6.43;;;;;;;;;;5035102;28;20052;-73
2022/04/26 10:49:35;;;;;;;9.02;5.18;;;;;;;;;;5037032;28;20033;-74
2022/04/26 10:52:13;;;;;;;9.07;5.22;;;;;;;;;;5048545;28;20037;-74
2022/04/26 10:54:46;;;;;;;8.90;7.07;;;;;;;;;;5029570;28;20382;-73
2022/04/26 10:57:15;;;;;;;9.70;5.30;;;;;;;;;;5050269;28;20037;-74
2022/04/26 10:59:44;;;;;;;9.75;5.72;;;;;;;;;;5029276;28;20034;-74
2022/04/26 11:02:18;;;;;;;8.75;5.45;;;;;;;;;;5052200;28;20056;-74
2022/04/26 11:04:44;;;;;;;9.27;5.90;;;;;;;;;;5047807;28;20055;-74
2022/04/26 11:07:14;;;;;;;7.43;4.85;;;;;;;;;;5030981;28;20056;-74
2022/04/26 11:09:49;;;;;;;9.32;6.00;;;;;;;;;;5048993;28;20107;-74
2022/04/26 11:12:17;;;;;;;10.57;4.97;;;;;;;;;;5047207;28;20056;-74
2022/04/26 11:14:44;;;;;;;8.55;5.97;;;;;;;;;;5026679;28;20029;-74
2022/04/26 11:17:10;;;;;;;9.65;4.45;;;;;;;;;;5046109;28;20029;-74
2022/04/26 11:19:37;;;;;;;7.60;5.32;;;;;;;;;;5060984;28;20068;-74
2022/04/26 11:22:09;;;;;;;9.00;5.03;;;;;;;;;;5046470;28;20033;-74
2022/04/26 11:30:06;;;;;;;8.82;4.90;;;;;;;;;;5047557;28;20145;-74
2022/04/26 11:32:43;;;;;;;7.35;4.82;;;;;;;;;;5047811;28;20028;-74
2022/04/26 11:35:10;;;;;;;8.93;4.88;;;;;;;;;;5030178;28;20049;-74
2022/04/26 11:38:03;;;;;;;6.05;3.97;;;;;;;;;;5047941;28;20025;-74
2022/04/26 11:40:28;;;;;;;;;;;;;;;;;;5041048;28;20049;-74
2022/04/26 11:42:58;;;;;;;9.13;4.57;;;;;;;;;;5043920;28;19947;-74
2022/04/26 11:45:28;;;;;;;7.07;4.53;;;;;;;;;;5047617;28;20036;-74
2022/04/26 11:47:56;;;;;;;7.10;4.63;;;;;;;;;;5051922;28;20033;-74
2022/04/26 11:50:26;;;;;;;6.20;3.90;;;;;;;;;;5051602;28;20029;-74
2022/04/26 11:52:56;;;;;;;8.93;4.43;;;;;;;;;;5045571;28;20120;-74
2022/04/26 11:55:29;;;;;;;7.97;5.18;;;;;;;;;;5046232;28;20055;-74
2022/04/26 11:58:05;;;;;;;8.93;4.15;;;;;;;;;;5056000;28;20151;-74
2022/04/26 12:00:31;;;;;;;6.63;3.60;;;;;;;;;;5049350;28;20829;-74
2022/04/26 12:02:57;;;;;;;6.88;4.18;;;;;;;;;;5056823;28;20820;-74
2022/04/26 12:05:23;;;;;;;9.60;4.45;;;;;;;;;;5053179;28;20113;-74
2022/04/26 12:07:50;;;;;;;9.70;4.35;;;;;;;;;;5055835;28;20021;-74
2022/04/26 12:10:47;;;;;;;7.30;3.45;;;;;;;;;;5052131;28;20044;-74
2022/04/26 12:13:14;;;;;;;6.30;3.75;;;;;;;;;;5023821;28;20083;-74
2022/04/26 12:15:39;;;;;;;9.63;3.80;;;;;;;;;;5030253;28;20043;-74
2022/04/26 12:18:07;;;;;;;5.80;3.95;;;;;;;;;;5032496;28;20116;-74
2022/04/26 12:20:35;;;;;;;6.93;3.88;;;;;;;;;;5049695;28;20816;-74
2022/04/26 12:23:01;;;;;;;9.02;3.58;;;;;;;;;;5055077;28;20046;-74
2022/04/26 12:25:27;;;;;;;6.18;3.30;;;;;;;;;;5062932;28;20053;-74
2022/04/26 12:28:04;;;;;;;7.07;3.38;;;;;;;;;;5050824;28;20469;-74
2022/04/26 12:30:30;;;;;;;6.70;3.75;;;;;;;;;;5048619;28;20033;-74
2022/04/26 12:32:56;;;;;;;6.45;2.92;;;;;;;;;;5051855;28;20047;-74
2022/04/26 12:35:23;;;;;;;7.32;3.40;;;;;;;;;;5051757;28;20064;-74
2022/04/26 12:38:03;;;;;;;5.82;2.90;;;;;;;;;;5048784;28;20063;-74
2022/04/26 12:40:29;;;;;;;7.90;3.38;;;;;;;;;;5050880;28;20532;-74
2022/04/26 12:42:57;;;;;;;4.50;2.83;;;;;;;;;;5056323;28;20040;-74
2022/04/26 12:45:23;;;;;;;7.07;3.03;;;;;;;;;;5054234;28;20048;-74
2022/04/26 12:50:49;;;;;;;5.35;2.78;;;;;;;;;;5045937;28;20044;-74
2022/04/26 12:53:23;;;;;;;5.13;2.60;;;;;;;;;;5033803;28;20021;-75
2022/04/26 12:55:49;;;;;;;4.82;2.60;;;;;;;;;;5048112;28;20043;-74
2022/04/26 12:58:16;;;;;;;8.00;3.28;;;;;;;;;;5057848;28;20032;-74
2022/04/26 13:00:42;;;;;;;5.00;2.92;;;;;;;;;;5054054;28;20067;-74
2022/04/26 13:03:09;;;;;;;4.65;2.80;;;;;;;;;;5050064;28;20052;-74
2022/04/26 13:05:35;;;;;;;5.05;3.00;;;;;;;;;;5051223;28;20033;-74
2022/04/26 13:08:02;;;;;;;4.45;2.47;;;;;;;;;;5052180;28;20087;-74
2022/04/26 13:10:28;;;;;;;4.95;2.67;;;;;;;;;;5051284;28;20412;-74
2022/04/26 13:12:54;;;;;;;5.43;2.70;;;;;;;;;;5036332;28;20025;-74
2022/04/26 13:15:23;;;;;;;5.10;2.78;;;;;;;;;;5049825;28;20121;-74
2022/04/26 13:17:49;;;;;;;5.25;2.50;;;;;;;;;;5048786;28;20036;-74
2022/04/26 13:20:15;;;;;;;5.45;2.67;;;;;;;;;;5050536;28;20036;-74
2022/04/26 13:22:41;;;;;;;4.80;2.47;;;;;;;;;;5049538;28;20614;-74
2022/04/26 13:25:07;;;;;;;4.35;1.90;;;;;;;;;;5050461;28;20049;-74
2022/04/26 13:27:34;;;;;;;5.28;2.20;;;;;;;;;;5049522;28;20033;-74
2022/04/26 13:30:01;;;;;;;4.32;2.35;;;;;;;;;;5049997;28;20474;-74
2022/04/26 13:32:29;;;;;;;5.82;2.42;;;;;;;;;;5047400;28;20051;-74
2022/04/26 13:34:55;;;;;;;5.25;2.47;;;;;;;;;;5060120;28;20460;-74
2022/04/26 13:37:21;;;;;;;7.53;2.53;;;;;;;;;;5031310;28;20071;-74
2022/04/26 13:39:50;;;;;;;7.18;2.38;;;;;;;;;;5049373;28;20044;-74
2022/04/26 13:42:16;;;;;;;5.90;2.67;;;;;;;;;;5048258;28;20152;-74
2022/04/26 13:44:43;;;;;;;6.97;2.97;;;;;;;;;;5056786;28;20064;-74
2022/04/26 13:47:09;;;;;;;5.95;2.60;;;;;;;;;;5047088;28;20107;-74
2022/04/26 13:49:36;;;;;;;6.78;2.90;;;;;;;;;;5041155;28;20463;-74
2022/04/26 13:52:03;;;;;;;6.22;3.30;;;;;;;;;;5049371;28;20478;-74
2022/04/26 13:54:29;;;;;;;4.03;2.20;;;;;;;;;;5050847;28;20033;-74
2022/04/26 13:56:56;;;;;;;7.68;2.78;;;;;;;;;;5050569;28;20083;-74
2022/04/26 13:59:22;;;;;;;4.53;2.78;;;;;;;;;;5053223;28;20033;-74
2022/04/26 14:01:52;;;;;;;5.22;2.30;;;;;;;;;;5056714;28;20090;-74
2022/04/26 14:04:19;;;;;;;4.72;2.70;;;;;;;;;;5050739;28;20037;-74
2022/04/26 14:06:46;;;;;;;5.70;2.65;;;;;;;;;;5042272;28;20497;-74
2022/04/26 14:09:12;;;;;;;9.50;2.53;;;;;;;;;;5045364;28;20040;-74
2022/04/26 14:11:38;;;;;;;6.80;2.60;;;;;;;;;;5049045;28;20029;-74
2022/04/26 14:22:18;;;;;;;10.48;2.65;;;;;;;;;;5046374;28;20114;-74
2022/04/26 14:24:44;;;;;;;10.80;2.65;;;;;;;;;;5047537;28;20080;-74
2022/04/26 14:27:10;;;;;;;6.63;2.60;;;;;;;;;;5032017;28;20049;-74
2022/04/26 14:29:37;;;;;;;5.70;2.58;;;;;;;;;;5051075;28;20052;-74
2022/04/26 14:32:03;;;;;;;9.18;3.63;;;;;;;;;;5047972;28;20047;-74
2022/04/26 14:34:29;;;;;;;7.70;2.58;;;;;;;;;;5048903;28;20035;-74
2022/04/26 14:36:55;;;;;;;9.10;2.95;;;;;;;;;;5048944;28;20103;-74
2022/04/26 14:39:21;;;;;;;5.60;2.85;;;;;;;;;;5032249;28;20541;-74
2022/04/26 14:41:47;;;;;;;5.45;2.75;;;;;;;;;;5048125;28;20850;-74
2022/04/26 14:44:13;;;;;;;4.78;2.80;;;;;;;;;;5052376;28;20064;-74
2022/04/26 14:46:39;;;;;;;11.23;3.60;;;;;;;;;;5055009;28;20033;-74
2022/04/26 14:49:07;;;;;;;3.90;2.45;;;;;;;;;;5048315;28;20401;-74
2022/04/26 14:51:33;;;;;;;3.92;2.20;;;;;;;;;;5046849;28;20025;-74
2022/04/26 14:53:59;;;;;;;3.47;2.20;;;;;;;;;;5047342;28;20041;-74
2022/04/26 14:56:25;;;;;;;6.38;2.40;;;;;;;;;;5040755;28;20131;-74
2022/04/26 14:58:51;;;;;;;6.22;2.40;;;;;;;;;;5048117;28;20434;-74
2022/04/26 15:01:18;;;;;;;3.72;2.00;;;;;;;;;;5046688;28;20499;-74
2022/04/26 15:03:44;;;;;;;8.57;2.55;;;;;;;;;;5047881;28;20112;-74
2022/04/26 15:06:11;;;;;;;6.43;2.22;;;;;;;;;;5052316;28;20105;-74
2022/04/26 15:11:21;;;;;;;5.75;2.63;;;;;;;;;;5053063;28;20395;-74
2022/04/26 15:16:49;;;;;;;3.90;2.58;;;;;;;;;;4964844;28;20039;-74
2022/04/26 15:19:15;;;;;;;8.48;2.72;;;;;;;;;;5030254;28;20147;-74
2022/04/26 15:21:43;;;;;;;4.93;2.00;;;;;;;;;;5032882;28;20060;-74
2022/04/26 15:24:10;;;;;;;3.75;2.17;;;;;;;;;;5047189;28;20049;-74
2022/04/26 15:26:36;;;;;;;3.72;2.42;;;;;;;;;;5047711;28;20041;-74
2022/04/26 15:29:04;;;;;;;5.65;2.88;;;;;;;;;;5050371;28;20033;-74
2022/04/26 15:31:30;;;;;;;7.18;2.83;;;;;;;;;;5051971;28;20374;-74
2022/04/26 15:33:57;;;;;;;3.35;2.00;;;;;;;;;;5050756;28;20037;-74
2022/04/26 15:36:23;;;;;;;3.70;2.30;;;;;;;;;;5035483;28;20040;-74
2022/04/26 15:38:49;;;;;;;4.50;1.77;;;;;;;;;;5055508;28;20040;-74
2022/04/26 15:41:16;;;;;;;5.75;2.35;;;;;;;;;;5039976;28;20136;-74
2022/04/26 15:43:42;;;;;;;6.10;2.47;;;;;;;;;;5051085;28;20071;-74
2022/04/26 15:46:09;;;;;;;5.00;2.33;;;;;;;;;;5051889;28;20059;-74
2022/04/26 15:48:38;;;;;;;7.50;2.35;;;;;;;;;;5051210;28;20398;-74
2022/04/26 15:51:05;;;;;;;4.63;2.53;;;;;;;;;;5051532;28;20025;-74
2022/04/26 15:53:31;;;;;;;5.88;2.25;;;;;;;;;;5052419;28;20500;-74
2022/04/26 15:55:57;;;;;;;6.28;2.63;;;;;;;;;;5042836;28;20111;-74
2022/04/26 15:58:23;;;;;;;5.22;2.63;;;;;;;;;;5058145;28;20037;-74
2022/04/26 16:00:51;;;;;;;5.25;2.35;;;;;;;;;;5047402;28;20414;-74
2022/04/26 16:03:17;;;;;;;4.75;2.33;;;;;;;;;;5048747;28;20033;-74
2022/04/26 16:05:44;;;;;;;5.88;2.60;;;;;;;;;;5053005;28;20043;-74
2022/04/26 16:08:10;;;;;;;7.03;2.60;;;;;;;;;;5050996;28;20222;-74
2022/04/26 16:21:36;;;;;;;4.65;2.67;;;;;;;;;;5046810;28;20095;-74
2022/04/26 16:24:02;;;;;;;27.60;7.45;;;;;;;;;;5044469;28;20077;-74
2022/04/26 16:26:30;;;;;;;20.38;6.05;;;;;;;;;;5042159;28;20043;-74
2022/04/26 16:28:56;;;;;;;8.20;3.35;;;;;;;;;;5049669;28;20035;-74
2022/04/26 16:31:28;;;;;;;12.48;4.65;;;;;;;;;;5050966;28;20389;-74
2022/04/26 16:33:57;;;;;;;14.68;5.03;;;;;;;;;;5053290;28;20139;-74
2022/04/26 16:36:25;;;;;;;15.82;4.65;;;;;;;;;;5048682;28;20028;-74
2022/04/26 16:38:51;;;;;;;10.02;3.50;;;;;;;;;;5050912;28;20040;-74
2022/04/26 16:41:17;;;;;;;18.08;5.10;;;;;;;;;;5050932;28;20043;-74
2022/04/26 16:43:43;;;;;;;5.05;2.60;;;;;;;;;;5052819;28;20036;-74
2022/04/26 16:46:11;;;;;;;6.72;3.13;;;;;;;;;;5046325;28;20037;-74
2022/04/26 16:48:37;;;;;;;6.57;2.83;;;;;;;;;;5048317;28;20167;-74
2022/04/26 16:51:03;;;;;;;5.43;2.45;;;;;;;;;;5050101;28;20357;-74
2022/04/26 16:53:29;;;;;;;4.47;2.40;;;;;;;;;;5050037;28;20029;-74
2022/04/26 16:55:56;;;;;;;5.50;2.53;;;;;;;;;;5049301;28;20032;-74
2022/04/26 16:58:22;;;;;;;7.88;3.00;;;;;;;;;;5044620;28;20167;-74
2022/04/26 17:00:48;;;;;;;5.25;2.60;;;;;;;;;;5048075;28;20120;-74
2022/04/26 17:03:18;;;;;;;9.05;3.10;;;;;;;;;;5046933;28;20869;-74
2022/04/26 17:05:45;;;;;;;4.85;2.92;;;;;;;;;;5046126;28;20036;-74
2022/04/26 17:08:17;;;;;;;11.20;3.50;;;;;;;;;;5045097;28;20040;-74
2022/04/26 17:10:43;;;;;;;;;;;;;;;;;;5049356;28;20032;-74
2022/04/26 17:13:09;;;;;;;6.57;2.80;;;;;;;;;;5044191;28;20227;-74
2022/04/26 17:15:36;;;;;;;8.30;2.58;;;;;;;;;;5047331;28;20035;-75
2022/04/26 17:18:02;;;;;;;6.15;3.10;;;;;;;;;;5046088;28;20147;-74
2022/04/26 17:20:33;;;;;;;5.93;2.80;;;;;;;;;;5049290;28;20029;-73
2022/04/26 17:22:59;;;;;;;7.40;3.20;;;;;;;;;;5046716;28;20132;-74
2022/04/26 17:25:25;;;;;;;6.53;2.95;;;;;;;;;;5044945;28;20068;-74
2022/04/26 17:27:52;;;;;;;7.68;2.80;;;;;;;;;;5049380;28;20029;-74
2022/04/26 17:30:18;;;;;;;8.45;3.35;;;;;;;;;;5047485;28;20021;-75
2022/04/26 17:32:45;;;;;;;7.03;2.63;;;;;;;;;;5028867;28;20144;-74
2022/04/26 17:35:11;;;;;;;5.60;3.38;;;;;;;;;;5048380;28;20025;-74
2022/04/26 17:37:39;;;;;;;7.63;2.85;;;;;;;;;;5048669;28;20029;-74
2022/04/26 17:40:06;;;;;;;5.65;3.05;;;;;;;;;;5049101;28;20033;-73
2022/04/26 17:42:34;;;;;;;5.10;3.22;;;;;;;;;;5048974;28;20025;-74
2022/04/26 17:45:04;;;;;;;5.00;2.83;;;;;;;;;;5049997;28;20064;-73
2022/04/26 17:47:31;;;;;;;6.97;2.78;;;;;;;;;;5035241;28;20028;-74
2022/04/26 17:50:00;;;;;;;7.85;2.90;;;;;;;;;;5049489;28;20537;-73
2022/04/26 17:52:27;;;;;;;4.15;2.53;;;;;;;;;;5056858;28;20112;-73
2022/04/26 17:57:59;;;;;;;6.22;2.25;;;;;;;;;;4975224;28;20520;-74
2022/04/26 18:00:25;;;;;;;5.20;2.65;;;;;;;;;;4968863;28;20049;-74
2022/04/26 18:02:50;;;;;;;5.30;2.45;;;;;;;;;;5006574;28;20040;-74
2022/04/26 18:05:17;;;;;;;5.13;3.03;;;;;;;;;;5053959;28;20080;-74
2022/04/26 18:07:43;;;;;;;5.25;2.65;;;;;;;;;;5046654;28;20017;-74
2022/04/26 18:10:09;;;;;;;6.75;2.78;;;;;;;;;;5049294;28;20036;-74
2022/04/26 18:12:37;;;;;;;6.80;2.85;;;;;;;;;;5052628;28;20021;-74
2022/04/26 18:15:03;;;;;;;7.60;2.55;;;;;;;;;;5047533;28;20123;-75
2022/04/26 18:17:29;;;;;;;5.88;3.20;;;;;;;;;;5048536;28;20021;-74
2022/04/26 18:19:55;;;;;;;4.78;2.70;;;;;;;;;;5050884;28;20045;-74
2022/04/26 18:22:21;;;;;;;6.97;2.60;;;;;;;;;;5045132;28;20039;-74
2022/04/26 18:24:47;;;;;;;5.13;2.50;;;;;;;;;;5047594;28;20056;-74
2022/04/26 18:27:13;;;;;;;6.13;3.00;;;;;;;;;;5043786;28;20025;-74
2022/04/26 18:29:39;;;;;;;5.38;3.00;;;;;;;;;;5035194;28;20044;-74
2022/04/26 18:32:05;;;;;;;4.93;2.97;;;;;;;;;;5047571;28;20044;-74
2022/04/26 18:34:31;;;;;;;8.45;2.60;;;;;;;;;;5040803;28;20103;-74
2022/04/26 18:36:57;;;;;;;6.45;2.80;;;;;;;;;;5047451;28;20033;-74
2022/04/26 18:39:25;;;;;;;7.78;3.30;;;;;;;;;;5050942;28;20052;-74
2022/04/26 18:41:56;;;;;;;4.72;2.78;;;;;;;;;;5047262;28;20163;-74
2022/04/26 18:44:23;;;;;;;8.70;2.80;;;;;;;;;;5046109;28;20038;-74
2022/04/26 18:46:49;;;;;;;5.72;2.50;;;;;;;;;;5030319;28;20276;-74
2022/04/26 18:49:16;;;;;;;5.95;2.40;;;;;;;;;;5049726;28;20082;-74
2022/04/26 18:51:43;;;;;;;6.18;2.95;;;;;;;;;;5052224;28;20037;-74
2022/04/26 18:54:09;;;;;;;6.40;3.00;;;;;;;;;;5048014;28;20063;-74
2022/04/26 18:56:36;;;;;;;6.72;2.88;;;;;;;;;;5051088;28;20028;-74
2022/04/26 18:59:02;;;;;;;5.20;3.10;;;;;;;;;;5048339;28;20052;-74
2022/04/26 19:01:29;;;;;;;6.65;2.78;;;;;;;;;;5049251;28;20386;-74
2022/04/26 19:03:55;;;;;;;5.80;3.20;;;;;;;;;;5054683;28;20667;-74
2022/04/26 19:06:22;;;;;;;4.82;2.63;;;;;;;;;;5052484;28;20037;-74